Time;durP1;ratioP1;P1;durP2;ratioP2;P2;SDS_P1;SDS_P2;PMS_P1;PMS_P2;Temp;Humidity;BMP_temperature;BMP_pressure;BME280_temperature;BME280_humidity;BME280_pressure;Samples;Min_cycle;Max_cycle;Signal;HPM_P1;HPM_P2
2022/04/19 00:00:54;;;;;;;8.27;7.45;;;;;;;;;;4999828;28;92173;-75
2022/04/19 00:03:20;;;;;;;8.55;6.93;;;;;;;;;;4979431;28;93225;-76
2022/04/19 00:05:47;;;;;;;8.05;7.18;;;;;;;;;;4977802;28;94841;-76
2022/04/19 00:08:14;;;;;;;8.75;7.03;;;;;;;;;;4996400;28;93897;-77
2022/04/19 00:10:41;;;;;;;9.35;6.80;;;;;;;;;;4996566;28;92253;-76
2022/04/19 00:13:08;;;;;;;7.53;6.78;;;;;;;;;;4979041;28;96314;-75
2022/04/19 00:15:36;;;;;;;7.72;7.03;;;;;;;;;;4996384;28;92749;-75
2022/04/19 00:18:05;;;;;;;9.32;6.88;;;;;;;;;;4996627;28;92318;-75
2022/04/19 00:20:32;;;;;;;9.30;7.03;;;;;;;;;;4999471;28;93309;-76
2022/04/19 00:22:59;;;;;;;8.68;7.80;;;;;;;;;;4979454;28;91437;-77
2022/04/19 00:25:25;;;;;;;10.43;8.27;;;;;;;;;;4996488;28;93632;-75
2022/04/19 00:27:51;;;;;;;9.13;8.13;;;;;;;;;;4996043;28;93210;-76
2022/04/19 00:30:18;;;;;;;9.07;8.18;;;;;;;;;;4976871;28;94856;-75
2022/04/19 00:32:45;;;;;;;9.73;8.63;;;;;;;;;;4996393;28;95878;-75
2022/04/19 00:35:12;;;;;;;10.48;8.80;;;;;;;;;;4999030;28;93567;-75
2022/04/19 00:37:40;;;;;;;9.45;8.55;;;;;;;;;;4998554;28;92356;-75
2022/04/19 00:40:08;;;;;;;10.27;9.02;;;;;;;;;;4998468;28;95910;-74
2022/04/19 00:42:35;;;;;;;9.80;8.80;;;;;;;;;;5002579;28;93038;-75
2022/04/19 00:45:03;;;;;;;9.95;9.02;;;;;;;;;;4982104;28;94842;-75
2022/04/19 00:47:33;;;;;;;11.60;9.25;;;;;;;;;;4965844;28;95772;-74
2022/04/19 00:50:04;;;;;;;11.77;9.07;;;;;;;;;;4981451;28;92479;-75
2022/04/19 00:52:34;;;;;;;9.48;8.57;;;;;;;;;;4999531;28;93354;-75
2022/04/19 00:55:01;;;;;;;10.20;9.15;;;;;;;;;;4979960;28;98487;-75
2022/04/19 00:57:32;;;;;;;14.23;9.33;;;;;;;;;;4998391;28;92431;-76
2022/04/19 00:59:58;;;;;;;11.25;9.40;;;;;;;;;;4998235;28;96152;-74
2022/04/19 01:02:26;;;;;;;11.77;9.80;;;;;;;;;;4981076;28;96728;-75
2022/04/19 01:04:55;;;;;;;10.55;9.50;;;;;;;;;;4984320;28;92760;-76
2022/04/19 01:07:22;;;;;;;13.32;10.88;;;;;;;;;;5019241;28;93673;-75
2022/04/19 01:09:52;;;;;;;12.77;10.80;;;;;;;;;;5000737;28;92500;-76
2022/04/19 01:15:07;;;;;;;13.65;11.57;;;;;;;;;;5016708;28;95574;-74
2022/04/19 01:17:52;;;;;;;13.65;10.77;;;;;;;;;;5000415;28;92408;-74
2022/04/19 01:20:18;;;;;;;11.88;10.75;;;;;;;;;;4999177;28;95629;-75
2022/04/19 01:22:47;;;;;;;20.10;11.57;;;;;;;;;;5016975;28;94594;-75
2022/04/19 01:25:14;;;;;;;13.65;11.30;;;;;;;;;;5000687;28;92752;-75
2022/04/19 01:27:41;;;;;;;12.90;11.60;;;;;;;;;;5019760;28;95423;-76
2022/04/19 01:30:08;;;;;;;11.73;10.57;;;;;;;;;;5000430;28;92711;-75
2022/04/19 01:32:36;;;;;;;12.70;11.35;;;;;;;;;;5016945;28;95851;-76
2022/04/19 01:35:05;;;;;;;12.60;10.95;;;;;;;;;;5016780;28;96136;-76
2022/04/19 01:37:33;;;;;;;12.38;11.07;;;;;;;;;;5000663;28;92956;-75
2022/04/19 01:40:18;;;;;;;13.95;11.27;;;;;;;;;;5017446;28;92494;-75
2022/04/19 01:42:58;;;;;;;12.50;11.20;;;;;;;;;;5016908;28;94658;-74
2022/04/19 01:45:30;;;;;;;14.35;11.10;;;;;;;;;;4996834;28;94828;-76
2022/04/19 01:48:00;;;;;;;12.68;11.38;;;;;;;;;;4999688;28;98189;-75
2022/04/19 01:50:27;;;;;;;16.95;12.40;;;;;;;;;;5002739;28;95586;-76
2022/04/19 01:52:56;;;;;;;13.98;12.18;;;;;;;;;;5017973;28;93155;-76
2022/04/19 01:55:27;;;;;;;;;;;;;;;;;;5017975;28;93463;-76
2022/04/19 01:57:57;;;;;;;21.30;12.13;;;;;;;;;;5000792;28;92839;-75
2022/04/19 02:00:30;;;;;;;17.83;12.55;;;;;;;;;;5000095;28;95933;-75
2022/04/19 02:02:59;;;;;;;14.07;12.55;;;;;;;;;;4999741;28;95889;-75
2022/04/19 02:05:25;;;;;;;14.00;12.50;;;;;;;;;;5017497;28;92306;-76
2022/04/19 02:07:52;;;;;;;15.05;13.23;;;;;;;;;;5006602;28;96794;-74
2022/04/19 02:10:20;;;;;;;15.75;12.75;;;;;;;;;;5005193;28;98427;-75
2022/04/19 02:12:51;;;;;;;15.13;12.30;;;;;;;;;;5019256;28;92301;-76
2022/04/19 02:15:46;;;;;;;18.75;12.55;;;;;;;;;;5016589;28;94329;-74
2022/04/19 02:18:20;;;;;;;13.38;11.70;;;;;;;;;;5016217;28;93159;-75
2022/04/19 02:20:46;;;;;;;14.75;13.15;;;;;;;;;;4999633;28;95498;-74
2022/04/19 02:23:14;;;;;;;20.38;12.85;;;;;;;;;;4999866;28;93804;-75
2022/04/19 02:25:41;;;;;;;14.02;12.52;;;;;;;;;;5000263;28;92378;-75
2022/04/19 02:28:10;;;;;;;13.32;11.93;;;;;;;;;;5015858;28;95905;-75
2022/04/19 02:30:42;;;;;;;15.02;12.38;;;;;;;;;;4998877;28;95553;-76
2022/04/19 02:33:16;;;;;;;19.48;12.77;;;;;;;;;;5002426;28;92572;-75
2022/04/19 02:35:42;;;;;;;12.70;11.27;;;;;;;;;;4997625;28;98832;-75
2022/04/19 02:38:11;;;;;;;16.23;11.95;;;;;;;;;;5016117;28;92482;-75
2022/04/19 02:40:45;;;;;;;13.95;11.82;;;;;;;;;;5015571;28;95729;-75
2022/04/19 02:43:13;;;;;;;13.75;11.00;;;;;;;;;;5015796;28;95092;-75
2022/04/19 02:45:41;;;;;;;12.95;11.60;;;;;;;;;;5015915;28;92513;-76
2022/04/19 02:48:11;;;;;;;13.27;11.65;;;;;;;;;;5015838;28;96090;-74
2022/04/19 02:50:46;;;;;;;13.65;12.23;;;;;;;;;;5015678;28;96267;-75
2022/04/19 02:53:14;;;;;;;14.05;12.60;;;;;;;;;;4982689;28;93092;-75
2022/04/19 02:55:41;;;;;;;17.83;12.70;;;;;;;;;;4997321;28;93895;-77
2022/04/19 02:58:07;;;;;;;15.77;13.13;;;;;;;;;;4994400;28;92335;-76
2022/04/19 03:00:36;;;;;;;18.52;14.05;;;;;;;;;;4976234;28;95762;-74
2022/04/19 03:03:03;;;;;;;14.43;12.93;;;;;;;;;;4977154;28;95475;-74
2022/04/19 03:05:33;;;;;;;25.15;14.02;;;;;;;;;;4975096;28;92806;-74
2022/04/19 03:08:00;;;;;;;19.77;14.23;;;;;;;;;;4974983;28;94996;-77
2022/04/19 03:10:26;;;;;;;16.83;13.43;;;;;;;;;;4994013;28;93558;-76
2022/04/19 03:12:52;;;;;;;15.88;14.02;;;;;;;;;;4975949;28;93337;-75
2022/04/19 03:15:24;;;;;;;15.75;13.98;;;;;;;;;;4976385;28;96112;-76
2022/04/19 03:17:50;;;;;;;18.17;13.60;;;;;;;;;;4980474;28;94761;-77
2022/04/19 03:20:20;;;;;;;18.77;13.73;;;;;;;;;;4962368;28;95055;-75
2022/04/19 03:28:23;;;;;;;15.15;13.07;;;;;;;;;;4998680;28;98002;-75
2022/04/19 03:30:51;;;;;;;14.93;12.82;;;;;;;;;;5015028;28;94215;-76
2022/04/19 03:33:20;;;;;;;13.93;12.45;;;;;;;;;;5015200;28;92603;-77
2022/04/19 03:35:46;;;;;;;15.93;11.63;;;;;;;;;;5015270;28;95980;-74
2022/04/19 03:38:13;;;;;;;14.15;12.63;;;;;;;;;;5014657;28;96424;-75
2022/04/19 03:40:46;;;;;;;19.13;13.35;;;;;;;;;;5001521;28;92243;-75
2022/04/19 03:43:13;;;;;;;16.70;13.93;;;;;;;;;;4998962;28;94690;-74
2022/04/19 03:45:39;;;;;;;17.35;13.68;;;;;;;;;;5016263;28;92189;-75
2022/04/19 03:48:06;;;;;;;15.55;13.75;;;;;;;;;;5015007;28;95677;-74
2022/04/19 03:50:33;;;;;;;17.63;12.98;;;;;;;;;;4996220;28;98233;-74
2022/04/19 03:52:59;;;;;;;16.00;13.32;;;;;;;;;;4998249;28;92954;-75
2022/04/19 03:55:26;;;;;;;16.73;13.07;;;;;;;;;;5014805;28;95096;-73
2022/04/19 03:57:54;;;;;;;17.23;12.93;;;;;;;;;;5014792;28;96075;-74
2022/04/19 04:00:21;;;;;;;18.58;13.18;;;;;;;;;;4981864;28;92397;-74
2022/04/19 04:02:48;;;;;;;16.70;13.65;;;;;;;;;;5017760;28;95469;-74
2022/04/19 04:05:25;;;;;;;14.30;12.80;;;;;;;;;;4997779;28;93432;-73
2022/04/19 04:07:57;;;;;;;18.00;13.75;;;;;;;;;;4998513;28;96121;-74
2022/04/19 04:10:26;;;;;;;15.30;12.43;;;;;;;;;;5001170;28;95791;-75
2022/04/19 04:12:53;;;;;;;16.95;13.48;;;;;;;;;;5018110;28;93379;-74
2022/04/19 04:15:19;;;;;;;16.15;13.20;;;;;;;;;;4999926;28;95303;-74
2022/04/19 04:17:46;;;;;;;17.02;13.63;;;;;;;;;;5004443;28;97308;-75
2022/04/19 04:20:12;;;;;;;14.43;12.85;;;;;;;;;;5029018;28;92402;-73
2022/04/19 04:22:39;;;;;;;14.98;12.95;;;;;;;;;;5023342;28;93694;-74
2022/04/19 04:25:05;;;;;;;16.17;13.43;;;;;;;;;;5017983;28;92434;-74
2022/04/19 04:27:32;;;;;;;15.50;12.80;;;;;;;;;;4998787;28;96439;-76
2022/04/19 04:30:00;;;;;;;18.58;13.88;;;;;;;;;;5001208;28;96533;-75
2022/04/19 04:32:28;;;;;;;16.38;14.13;;;;;;;;;;4998496;28;91713;-74
2022/04/19 04:34:55;;;;;;;18.02;13.43;;;;;;;;;;5017799;28;94135;-74
2022/04/19 04:37:22;;;;;;;15.98;13.57;;;;;;;;;;5000750;28;95329;-75
2022/04/19 04:39:55;;;;;;;14.55;13.05;;;;;;;;;;4999283;28;94700;-74
2022/04/19 04:42:24;;;;;;;17.40;13.07;;;;;;;;;;5018225;28;94783;-74
2022/04/19 04:44:55;;;;;;;15.43;12.60;;;;;;;;;;5020466;28;95704;-74
2022/04/19 04:50:10;;;;;;;20.90;13.45;;;;;;;;;;5000970;28;94465;-75
2022/04/19 04:52:36;;;;;;;15.77;13.90;;;;;;;;;;5000899;28;93242;-74
2022/04/19 04:55:07;;;;;;;14.52;12.45;;;;;;;;;;5014251;28;95279;-75
2022/04/19 04:57:35;;;;;;;15.40;12.95;;;;;;;;;;4997860;28;95472;-74
2022/04/19 05:00:02;;;;;;;15.68;13.05;;;;;;;;;;4997681;28;92247;-75
2022/04/19 05:02:46;;;;;;;16.63;13.10;;;;;;;;;;4997394;28;97044;-74
2022/04/19 05:05:13;;;;;;;16.15;13.52;;;;;;;;;;4979002;28;98829;-74
2022/04/19 05:07:39;;;;;;;15.63;13.23;;;;;;;;;;4943111;28;92493;-76
2022/04/19 05:10:07;;;;;;;18.75;14.20;;;;;;;;;;4956747;28;95621;-74
2022/04/19 05:12:34;;;;;;;21.80;13.23;;;;;;;;;;4956998;28;92533;-75
2022/04/19 05:15:02;;;;;;;15.13;13.10;;;;;;;;;;4940553;28;95867;-75
2022/04/19 05:17:33;;;;;;;17.00;13.57;;;;;;;;;;4940153;28;95509;-72
2022/04/19 05:20:01;;;;;;;17.70;14.20;;;;;;;;;;4940104;28;92451;-73
2022/04/19 05:22:32;;;;;;;17.90;13.90;;;;;;;;;;4956852;28;96016;-76
2022/04/19 05:24:58;;;;;;;16.35;13.57;;;;;;;;;;4940677;28;95999;-77
2022/04/19 05:27:24;;;;;;;23.65;13.68;;;;;;;;;;4956458;28;92511;-73
2022/04/19 05:29:51;;;;;;;16.80;13.52;;;;;;;;;;4958145;28;96252;-74
2022/04/19 05:32:18;;;;;;;16.15;13.23;;;;;;;;;;4940002;28;92484;-76
2022/04/19 05:34:48;;;;;;;18.23;13.60;;;;;;;;;;4956622;28;96087;-74
2022/04/19 05:37:21;;;;;;;17.30;11.82;;;;;;;;;;4956419;28;96494;-76
2022/04/19 05:39:47;;;;;;;15.07;11.68;;;;;;;;;;4994166;28;92393;-76
2022/04/19 05:42:15;;;;;;;18.13;11.70;;;;;;;;;;5013316;28;95460;-75
2022/04/19 05:44:43;;;;;;;17.42;11.90;;;;;;;;;;5013199;28;96444;-75
2022/04/19 05:47:14;;;;;;;12.48;11.20;;;;;;;;;;4997203;28;92195;-75
2022/04/19 05:49:40;;;;;;;13.85;11.63;;;;;;;;;;4996368;28;94123;-75
2022/04/19 05:52:07;;;;;;;18.48;11.20;;;;;;;;;;5016424;28;95560;-75
2022/04/19 05:54:41;;;;;;;17.95;11.95;;;;;;;;;;5011378;28;96311;-75
2022/04/19 05:57:09;;;;;;;18.50;12.07;;;;;;;;;;4996310;28;95696;-75
2022/04/19 05:59:36;;;;;;;32.67;11.75;;;;;;;;;;4997689;28;92177;-74
2022/04/19 06:04:54;;;;;;;14.93;11.77;;;;;;;;;;4996146;28;95625;-76
2022/04/19 06:07:25;;;;;;;15.88;12.07;;;;;;;;;;4996608;28;92843;-77
2022/04/19 06:09:55;;;;;;;22.95;11.73;;;;;;;;;;4996578;28;94814;-75
2022/04/19 06:12:23;;;;;;;19.98;11.93;;;;;;;;;;5013083;28;95565;-77
2022/04/19 06:14:52;;;;;;;17.27;12.27;;;;;;;;;;4999257;28;92971;-77
2022/04/19 06:17:22;;;;;;;25.88;12.85;;;;;;;;;;4996000;28;96179;-76
2022/04/19 06:19:49;;;;;;;20.35;13.82;;;;;;;;;;5011308;28;95607;-74
2022/04/19 06:22:16;;;;;;;15.55;12.57;;;;;;;;;;5012891;28;98768;-76
2022/04/19 06:24:55;;;;;;;16.63;12.48;;;;;;;;;;5012528;28;95187;-76
2022/04/19 06:27:22;;;;;;;17.40;12.82;;;;;;;;;;4996244;28;92681;-76
2022/04/19 06:29:50;;;;;;;22.80;13.02;;;;;;;;;;4997103;28;96276;-76
2022/04/19 06:32:17;;;;;;;21.70;13.10;;;;;;;;;;5022909;28;94635;-76
2022/04/19 06:34:46;;;;;;;14.38;12.75;;;;;;;;;;5000843;28;92717;-76
2022/04/19 06:37:16;;;;;;;16.20;12.13;;;;;;;;;;5010383;28;92801;-76
2022/04/19 06:39:46;;;;;;;14.55;13.05;;;;;;;;;;5012035;28;93019;-74
2022/04/19 06:42:13;;;;;;;13.48;12.00;;;;;;;;;;5012471;28;96200;-76
2022/04/19 06:44:58;;;;;;;14.70;11.95;;;;;;;;;;4994508;28;94948;-75
2022/04/19 06:47:28;;;;;;;17.55;12.80;;;;;;;;;;5012461;28;93925;-76
2022/04/19 06:49:57;;;;;;;16.95;12.27;;;;;;;;;;4995808;28;95694;-77
2022/04/19 06:52:26;;;;;;;17.85;12.20;;;;;;;;;;5012060;28;96389;-75
2022/04/19 06:54:56;;;;;;;15.25;11.70;;;;;;;;;;5012126;28;92479;-75
2022/04/19 06:57:22;;;;;;;15.40;12.10;;;;;;;;;;4998675;28;95784;-73
2022/04/19 06:59:49;;;;;;;13.30;12.00;;;;;;;;;;4979242;28;92407;-73
2022/04/19 07:02:16;;;;;;;18.75;12.18;;;;;;;;;;5012813;28;95436;-75
2022/04/19 07:05:10;;;;;;;13.63;12.23;;;;;;;;;;4995937;28;93912;-75
2022/04/19 07:07:40;;;;;;;14.63;12.43;;;;;;;;;;4995567;28;92410;-74
2022/04/19 07:10:06;;;;;;;12.68;11.45;;;;;;;;;;4993949;28;95848;-75
2022/04/19 07:12:33;;;;;;;13.48;11.85;;;;;;;;;;5011787;28;95531;-77
2022/04/19 07:15:13;;;;;;;17.73;12.40;;;;;;;;;;5012164;28;93130;-75
2022/04/19 07:17:44;;;;;;;13.00;11.43;;;;;;;;;;4995339;28;96358;-75
2022/04/19 07:28:35;;;;;;;14.82;11.27;;;;;;;;;;5012313;28;92974;-76
2022/04/19 07:31:05;;;;;;;11.57;10.38;;;;;;;;;;5011918;28;95583;-75
2022/04/19 07:33:37;;;;;;;11.82;10.45;;;;;;;;;;4994858;28;94722;-75
2022/04/19 07:36:04;;;;;;;15.55;10.45;;;;;;;;;;4993240;28;94826;-76
2022/04/19 07:38:31;;;;;;;11.13;9.18;;;;;;;;;;4995151;28;95696;-76
2022/04/19 07:41:04;;;;;;;15.07;9.65;;;;;;;;;;4995127;28;92566;-76
2022/04/19 07:43:32;;;;;;;12.77;10.63;;;;;;;;;;4999109;28;92325;-75
2022/04/19 07:45:59;;;;;;;12.90;10.10;;;;;;;;;;5011686;28;96060;-76
2022/04/19 07:48:28;;;;;;;11.95;9.85;;;;;;;;;;5011388;28;92989;-75
2022/04/19 07:50:54;;;;;;;12.82;10.02;;;;;;;;;;4995743;28;95882;-75
2022/04/19 07:53:21;;;;;;;14.77;8.93;;;;;;;;;;4995991;28;94506;-75
2022/04/19 07:55:49;;;;;;;11.95;8.95;;;;;;;;;;4998988;28;93202;-75
2022/04/19 07:58:15;;;;;;;10.30;9.07;;;;;;;;;;4999177;28;96075;-74
2022/04/19 08:00:42;;;;;;;18.15;8.80;;;;;;;;;;4996994;28;96637;-74
2022/04/19 08:03:09;;;;;;;12.48;8.88;;;;;;;;;;4998537;28;92970;-73
2022/04/19 08:05:35;;;;;;;9.98;8.95;;;;;;;;;;5019355;28;93189;-75
2022/04/19 08:08:02;;;;;;;10.40;9.40;;;;;;;;;;5015364;28;92283;-75
2022/04/19 08:10:29;;;;;;;11.60;9.40;;;;;;;;;;5016504;28;93143;-74
2022/04/19 08:13:00;;;;;;;16.13;9.10;;;;;;;;;;4994902;28;96020;-78
2022/04/19 08:15:26;;;;;;;11.73;8.98;;;;;;;;;;5004759;28;92414;-76
2022/04/19 08:17:53;;;;;;;12.43;8.68;;;;;;;;;;5008955;28;92944;-71
2022/04/19 08:20:19;;;;;;;10.55;8.10;;;;;;;;;;5004852;28;94714;-73
2022/04/19 08:22:50;;;;;;;18.42;8.52;;;;;;;;;;4980225;28;92462;-74
2022/04/19 08:25:23;;;;;;;8.02;7.32;;;;;;;;;;5002925;28;95215;-72
2022/04/19 08:27:50;;;;;;;11.00;7.13;;;;;;;;;;4991474;28;94564;-70
2022/04/19 08:30:18;;;;;;;10.52;7.15;;;;;;;;;;4986390;28;95384;-73
2022/04/19 08:32:48;;;;;;;10.53;7.17;;;;;;;;;;5004356;28;95951;-75
2022/04/19 08:35:17;;;;;;;10.75;7.28;;;;;;;;;;5003832;28;92457;-76
2022/04/19 08:37:47;;;;;;;8.18;7.38;;;;;;;;;;4987209;28;92730;-78
2022/04/19 08:40:17;;;;;;;8.77;7.75;;;;;;;;;;4999163;28;95124;-77
2022/04/19 08:42:47;;;;;;;8.60;6.60;;;;;;;;;;4989579;28;91692;-76
2022/04/19 08:45:15;;;;;;;8.00;7.15;;;;;;;;;;5007779;28;92448;-75
2022/04/19 08:47:41;;;;;;;9.77;6.40;;;;;;;;;;5007092;28;93829;-73
2022/04/19 08:50:12;;;;;;;6.82;6.13;;;;;;;;;;5004429;28;94778;-70
2022/04/19 08:52:39;;;;;;;8.48;6.68;;;;;;;;;;5002079;28;93920;-70
2022/04/19 08:57:51;;;;;;;15.73;8.50;;;;;;;;;;5001861;28;93466;-71
2022/04/19 09:00:22;;;;;;;6.38;5.78;;;;;;;;;;5010110;28;93561;-70
2022/04/19 09:02:57;;;;;;;6.50;5.80;;;;;;;;;;5007245;28;93275;-74
2022/04/19 09:05:26;;;;;;;9.50;6.65;;;;;;;;;;5003512;28;93560;-75
2022/04/19 09:07:54;;;;;;;6.72;6.10;;;;;;;;;;5007268;28;93859;-75
2022/04/19 09:10:32;;;;;;;11.05;6.85;;;;;;;;;;5013690;28;92384;-74
2022/04/19 09:13:01;;;;;;;6.85;6.25;;;;;;;;;;5003442;28;93249;-75
2022/04/19 09:15:33;;;;;;;7.40;6.65;;;;;;;;;;5002038;28;94761;-75
2022/04/19 09:18:01;;;;;;;7.20;6.60;;;;;;;;;;5003663;28;94117;-76
2022/04/19 09:20:27;;;;;;;13.57;7.30;;;;;;;;;;5010229;28;93072;-73
2022/04/19 09:23:03;;;;;;;7.95;6.93;;;;;;;;;;5006896;28;92336;-75
2022/04/19 09:25:30;;;;;;;7.53;6.72;;;;;;;;;;5003056;28;92960;-76
2022/04/19 09:27:57;;;;;;;7.40;6.47;;;;;;;;;;5009615;28;93297;-75
2022/04/19 09:30:24;;;;;;;7.43;6.57;;;;;;;;;;5007068;28;93843;-76
2022/04/19 09:33:06;;;;;;;9.07;6.93;;;;;;;;;;5010320;28;93436;-74
2022/04/19 09:35:43;;;;;;;8.80;7.15;;;;;;;;;;5003155;28;92328;-75
2022/04/19 09:38:10;;;;;;;7.22;6.53;;;;;;;;;;5004571;28;92769;-74
2022/04/19 09:40:44;;;;;;;8.55;6.93;;;;;;;;;;5008004;28;96472;-75
2022/04/19 09:43:12;;;;;;;7.78;7.07;;;;;;;;;;5006617;28;92566;-76
2022/04/19 09:46:05;;;;;;;9.43;7.32;;;;;;;;;;5009928;28;92362;-76
2022/04/19 09:48:35;;;;;;;8.43;6.75;;;;;;;;;;5000824;28;93531;-75
2022/04/19 09:51:03;;;;;;;9.60;7.30;;;;;;;;;;5009624;28;92469;-74
2022/04/19 09:53:40;;;;;;;8.75;6.95;;;;;;;;;;4983506;28;93516;-72
2022/04/19 09:56:08;;;;;;;10.75;7.05;;;;;;;;;;4991384;28;96056;-71
2022/04/19 09:58:35;;;;;;;7.75;6.72;;;;;;;;;;5010003;28;92910;-76
2022/04/19 10:01:01;;;;;;;9.38;6.82;;;;;;;;;;5007023;28;93536;-77
2022/04/19 10:09:15;;;;;;;6.80;6.10;;;;;;;;;;5003055;28;93097;-76
2022/04/19 10:11:43;;;;;;;9.80;6.85;;;;;;;;;;5018301;28;92393;-76
2022/04/19 10:14:10;;;;;;;8.15;6.78;;;;;;;;;;4975388;28;92822;-74
2022/04/19 10:16:36;;;;;;;7.57;6.80;;;;;;;;;;4942195;28;93143;-77
2022/04/19 10:19:08;;;;;;;8.63;6.72;;;;;;;;;;4945529;28;93158;-74
2022/04/19 10:21:40;;;;;;;8.15;6.45;;;;;;;;;;4975487;28;94560;-75
2022/04/19 10:24:08;;;;;;;11.15;7.18;;;;;;;;;;4976420;28;92073;-75
2022/04/19 10:26:39;;;;;;;8.40;7.30;;;;;;;;;;4975703;28;93708;-76
2022/04/19 10:29:14;;;;;;;9.52;7.28;;;;;;;;;;4974993;28;93691;-78
2022/04/19 10:31:41;;;;;;;9.15;7.38;;;;;;;;;;4974224;28;96348;-76
2022/04/19 10:34:07;;;;;;;7.90;7.18;;;;;;;;;;4976397;28;95169;-77
2022/04/19 10:36:39;;;;;;;6.97;6.10;;;;;;;;;;4975548;28;93170;-76
2022/04/19 10:39:13;;;;;;;10.48;6.13;;;;;;;;;;4975833;28;92404;-76
2022/04/19 10:41:52;;;;;;;9.32;6.30;;;;;;;;;;4978330;28;94744;-77
2022/04/19 10:44:18;;;;;;;;;;;;;;;;;;4983912;28;92528;-76
2022/04/19 10:46:45;;;;;;;8.27;6.28;;;;;;;;;;5009767;28;101375;-75
2022/04/19 10:49:21;;;;;;;7.43;6.57;;;;;;;;;;5011575;28;92588;-77
2022/04/19 10:51:52;;;;;;;7.63;6.47;;;;;;;;;;5009791;28;92412;-76
2022/04/19 10:54:37;;;;;;;7.53;6.80;;;;;;;;;;5003533;28;93335;-75
2022/04/19 11:00:20;;;;;;;10.90;6.93;;;;;;;;;;5004089;28;92300;-76
2022/04/19 11:03:00;;;;;;;11.55;6.72;;;;;;;;;;5007622;28;92942;-75
2022/04/19 11:06:08;;;;;;;6.90;6.18;;;;;;;;;;5001649;28;92278;-76
2022/04/19 11:08:38;;;;;;;9.20;6.97;;;;;;;;;;4933348;28;93249;-77
2022/04/19 11:11:20;;;;;;;7.43;6.72;;;;;;;;;;4915692;28;93165;-75
2022/04/19 11:14:17;;;;;;;10.33;7.20;;;;;;;;;;4945016;28;92394;-76
2022/04/19 11:16:44;;;;;;;9.70;6.43;;;;;;;;;;4948749;28;94447;-77
2022/04/19 11:19:16;;;;;;;10.32;7.10;;;;;;;;;;4965425;28;93052;-78
2022/04/19 11:21:54;;;;;;;10.00;7.60;;;;;;;;;;4963435;28;92390;-76
2022/04/19 11:24:39;;;;;;;12.57;7.15;;;;;;;;;;4939825;28;94969;-76
2022/04/19 11:27:06;;;;;;;10.90;6.72;;;;;;;;;;4959815;28;93895;-76
2022/04/19 11:29:46;;;;;;;7.28;5.95;;;;;;;;;;4955623;28;94374;-78
2022/04/19 11:32:19;;;;;;;9.43;6.57;;;;;;;;;;4955509;28;94005;-77
2022/04/19 11:35:01;;;;;;;8.40;6.18;;;;;;;;;;4956429;28;92221;-77
2022/04/19 11:37:29;;;;;;;6.40;5.63;;;;;;;;;;4939729;28;93050;-74
2022/04/19 11:46:48;;;;;;;11.63;6.45;;;;;;;;;;4995847;28;94813;-77
2022/04/19 11:49:20;;;;;;;9.00;6.30;;;;;;;;;;4996899;28;92255;-78
2022/04/19 11:51:46;;;;;;;7.78;6.18;;;;;;;;;;4999024;28;94560;-77
2022/04/19 11:54:19;;;;;;;7.38;6.43;;;;;;;;;;4996538;28;94111;-76
2022/04/19 11:56:51;;;;;;;9.77;7.05;;;;;;;;;;4996379;28;92398;-75
2022/04/19 11:59:25;;;;;;;9.80;6.82;;;;;;;;;;4997092;28;93170;-76
2022/04/19 12:01:52;;;;;;;12.13;6.95;;;;;;;;;;4996695;28;92984;-75
2022/04/19 12:04:18;;;;;;;8.20;6.50;;;;;;;;;;4996909;28;92185;-76
2022/04/19 12:06:46;;;;;;;10.70;6.35;;;;;;;;;;4997087;28;92927;-75
2022/04/19 12:09:22;;;;;;;7.55;6.65;;;;;;;;;;4979279;28;93591;-80
2022/04/19 12:11:49;;;;;;;14.43;6.38;;;;;;;;;;4997111;28;92163;-79
2022/04/19 12:14:24;;;;;;;10.18;6.50;;;;;;;;;;4999398;28;94464;-77
2022/04/19 12:17:00;;;;;;;6.22;5.63;;;;;;;;;;4994610;28;94914;-77
2022/04/19 12:19:39;;;;;;;6.93;6.28;;;;;;;;;;4979714;28;95056;-77
2022/04/19 12:22:19;;;;;;;10.70;6.65;;;;;;;;;;4995550;28;95454;-76
2022/04/19 12:24:47;;;;;;;11.18;6.85;;;;;;;;;;4979382;28;92255;-77
2022/04/19 12:27:14;;;;;;;13.27;6.45;;;;;;;;;;4978732;28;94368;-75
2022/04/19 12:29:59;;;;;;;7.85;6.50;;;;;;;;;;4997006;28;92908;-75
2022/04/19 12:32:26;;;;;;;11.25;6.07;;;;;;;;;;4999819;28;92256;-77
2022/04/19 12:35:07;;;;;;;8.45;5.47;;;;;;;;;;4996211;28;91796;-76
2022/04/19 12:37:33;;;;;;;7.38;5.55;;;;;;;;;;4984984;28;93108;-76
2022/04/19 12:40:00;;;;;;;7.75;5.82;;;;;;;;;;4999994;28;93775;-75
2022/04/19 12:42:27;;;;;;;7.60;4.68;;;;;;;;;;4997908;28;95275;-75
2022/04/19 12:45:02;;;;;;;4.70;4.20;;;;;;;;;;4982493;28;92428;-76
2022/04/19 12:47:29;;;;;;;7.03;4.60;;;;;;;;;;4982624;28;92768;-77
2022/04/19 12:49:56;;;;;;;8.18;4.32;;;;;;;;;;4999576;28;92899;-77
2022/04/19 12:52:31;;;;;;;7.57;4.60;;;;;;;;;;4980806;28;92324;-75
2022/04/19 12:55:01;;;;;;;5.63;4.68;;;;;;;;;;5000926;28;92678;-75
2022/04/19 12:57:27;;;;;;;10.98;5.20;;;;;;;;;;5012864;28;94159;-74
2022/04/19 12:59:54;;;;;;;6.53;4.68;;;;;;;;;;5005376;28;91604;-75
2022/04/19 13:02:20;;;;;;;6.07;5.13;;;;;;;;;;4999432;28;94119;-76
2022/04/19 13:04:47;;;;;;;5.65;5.13;;;;;;;;;;4981495;28;92321;-75
2022/04/19 13:12:44;;;;;;;4.72;4.20;;;;;;;;;;4999524;28;92536;-75
2022/04/19 13:15:11;;;;;;;4.65;4.18;;;;;;;;;;4999107;28;93342;-76
2022/04/19 13:17:39;;;;;;;4.82;4.43;;;;;;;;;;4999281;28;93186;-79
2022/04/19 13:20:06;;;;;;;9.13;4.63;;;;;;;;;;5002302;28;92242;-77
2022/04/19 13:22:35;;;;;;;12.70;4.80;;;;;;;;;;4965225;28;95678;-77
2022/04/19 13:25:01;;;;;;;4.93;4.53;;;;;;;;;;4982018;28;91634;-76
2022/04/19 13:27:30;;;;;;;3.55;3.35;;;;;;;;;;4999331;28;92278;-76
2022/04/19 13:29:56;;;;;;;5.95;3.33;;;;;;;;;;4998949;28;93966;-79
2022/04/19 13:32:23;;;;;;;4.00;3.67;;;;;;;;;;4997711;28;94611;-79
2022/04/19 13:34:49;;;;;;;3.67;3.38;;;;;;;;;;4998887;28;96644;-77
2022/04/19 13:37:16;;;;;;;4.65;3.58;;;;;;;;;;4981567;28;93715;-78
2022/04/19 13:39:42;;;;;;;5.22;3.88;;;;;;;;;;4981159;28;92462;-78
2022/04/19 13:42:09;;;;;;;3.90;3.58;;;;;;;;;;5001202;28;93380;-78
2022/04/19 13:44:35;;;;;;;4.28;3.13;;;;;;;;;;4980855;28;92442;-73
2022/04/19 13:47:02;;;;;;;5.85;2.50;;;;;;;;;;4998642;28;93780;-75
2022/04/19 13:49:32;;;;;;;4.63;2.80;;;;;;;;;;4996592;28;94045;-75
2022/04/19 13:51:59;;;;;;;5.18;3.35;;;;;;;;;;4998211;28;92347;-74
2022/04/19 13:54:25;;;;;;;2.95;2.75;;;;;;;;;;4998363;28;93139;-74
2022/04/19 13:56:52;;;;;;;3.50;2.67;;;;;;;;;;4995354;28;96873;-79
2022/04/19 13:59:19;;;;;;;3.97;2.47;;;;;;;;;;4964582;28;92413;-79
2022/04/19 14:01:46;;;;;;;3.03;1.98;;;;;;;;;;4964773;28;95651;-80
2022/04/19 14:04:14;;;;;;;2.13;1.95;;;;;;;;;;5001842;28;94106;-79
2022/04/19 14:06:41;;;;;;;4.15;2.00;;;;;;;;;;4975828;28;95283;-76
2022/04/19 14:09:08;;;;;;;2.60;1.92;;;;;;;;;;4974823;28;93306;-75
2022/04/19 14:11:35;;;;;;;2.38;2.17;;;;;;;;;;4975401;28;92383;-79
2022/04/19 14:14:04;;;;;;;2.17;1.90;;;;;;;;;;4976184;28;94017;-77
2022/04/19 14:16:30;;;;;;;2.33;2.15;;;;;;;;;;4959156;28;93625;-78
2022/04/19 14:18:57;;;;;;;4.18;2.03;;;;;;;;;;4975028;28;92369;-76
2022/04/19 14:21:24;;;;;;;1.52;1.42;;;;;;;;;;4974333;28;94840;-76
2022/04/19 14:23:50;;;;;;;7.43;1.88;;;;;;;;;;4975260;28;93624;-79
2022/04/19 14:26:17;;;;;;;2.50;2.30;;;;;;;;;;4978590;28;92442;-77
2022/04/19 14:34:14;;;;;;;3.50;3.25;;;;;;;;;;4973811;28;93940;-77
2022/04/19 14:36:44;;;;;;;2.50;2.40;;;;;;;;;;4977019;28;93108;-76
2022/04/19 14:39:10;;;;;;;4.65;3.00;;;;;;;;;;5005851;28;91601;-77
2022/04/19 14:41:36;;;;;;;4.55;2.40;;;;;;;;;;5006354;28;92485;-76
2022/04/19 14:44:03;;;;;;;3.50;2.47;;;;;;;;;;5007877;28;93789;-76
2022/04/19 14:46:29;;;;;;;4.30;3.72;;;;;;;;;;5000175;28;95607;-76
2022/04/19 14:48:56;;;;;;;4.13;3.80;;;;;;;;;;5008601;28;95182;-77
2022/04/19 14:54:09;;;;;;;17.73;6.78;;;;;;;;;;4966446;28;93593;-79
2022/04/19 14:56:43;;;;;;;5.30;4.25;;;;;;;;;;4984093;28;93142;-78
2022/04/19 14:59:10;;;;;;;7.50;3.35;;;;;;;;;;5008227;28;92347;-79
2022/04/19 15:01:40;;;;;;;9.70;5.18;;;;;;;;;;5011063;28;93324;-79
2022/04/19 15:04:18;;;;;;;9.13;4.00;;;;;;;;;;5012634;28;95834;-79
2022/04/19 15:06:50;;;;;;;5.60;3.10;;;;;;;;;;4987339;28;92425;-78
2022/04/19 15:09:16;;;;;;;2.80;2.60;;;;;;;;;;4990152;28;94297;-83
2022/04/19 15:12:04;;;;;;;4.55;2.70;;;;;;;;;;4986213;28;95259;-79
2022/04/19 15:14:36;;;;;;;3.28;2.88;;;;;;;;;;4991224;28;97705;-78
2022/04/19 15:17:02;;;;;;;3.03;2.83;;;;;;;;;;4966195;28;96388;-75
2022/04/19 15:19:29;;;;;;;7.38;2.65;;;;;;;;;;5006595;28;92835;-76
2022/04/19 15:21:56;;;;;;;4.07;2.90;;;;;;;;;;4986660;28;96752;-77
2022/04/19 15:24:24;;;;;;;3.13;2.85;;;;;;;;;;4983783;28;97021;-77
2022/04/19 15:26:50;;;;;;;4.57;2.80;;;;;;;;;;5007909;28;92366;-79
2022/04/19 15:29:16;;;;;;;2.78;2.65;;;;;;;;;;5003290;28;92892;-77
2022/04/19 15:31:43;;;;;;;4.32;2.60;;;;;;;;;;5002558;28;94077;-78
2022/04/19 15:34:09;;;;;;;4.13;2.83;;;;;;;;;;5009076;28;94160;-76
2022/04/19 15:36:37;;;;;;;2.85;2.40;;;;;;;;;;4953759;28;96246;-78
2022/04/19 15:39:04;;;;;;;9.50;2.80;;;;;;;;;;5003597;28;92711;-80